Aérodrome :
LOGIN :

S'inscrire | Disclaimer

   EN    FR    IT 

 










Légende :    VFR   VFR Marginal   IFR   IFR Intensif   IFR Très Intensif
Visi : 
Plafond : 
>= 8 km
>= 3000ft
5 à 8 km
1000 à 3000 ft
1500m à 5 km
500 à 1000 ft
800 à 1500m
200 à 500 ft
< 800m
< 200 ft
Symboles :   Orages  Brouillard  Fortes neiges  Fortes précipitations  Vent > 20 kt
SIGMETs :   Divers  Orages  Givrage  Turbulence  Onde Orograph.  Cendres Volcan.






- Altitude de l'aérodrome : 3 ft
- Code IATA : DHR


EHKD - Den Helder De Kooy

DERNIER METAR :
  • 240102Z AUTO 17009KT 4600 BR OVC007 04/03 Q1025 GRN

METARs EXPIRÉS :
  • 240055Z AUTO 18008KT 5000 BR OVC007 04/03 Q1025 GRN
  • 240039Z AUTO 18008KT 4400 BR OVC007 04/03 Q1025 GRN
  • 240025Z AUTO 18008KT 5000 BR OVC008 04/03 Q1025 GRN
  • 232355Z AUTO 18008KT 6000 BR BKN007 OVC008 05/03 Q1025 GRN
  • 232327Z AUTO 18006KT 150V210 7000 BR OVC008 05/04 Q1026 GRN
  • 232255Z AUTO 17006KT 9000 BR BKN009 OVC010 05/04 Q1026 GRN

TAF TAF EHKD
Valide du 23 à 18h jusqu'au 24 à 06h UTC


231752Z 2318/2406 21004KT 9000 SCT010 BKN014
TEMPO 2318/2406 3500 BR SCT003 BKN005
PROB30
TEMPO 2402/2406 0800 FG



MET'MAP, la Météo Aéronautique d'un coup d'oeil ! - Copyright ORBIFLY Décembre 2007 - Disclaimer

ORBIFLY MET'MAP TEAM :

Programmation & Développement : Alexandra Zaïnal
Sur une idée originale de : Baudouin d'Aumeries
Assistance à la programmation : Marc-Olivier Méhu
Soutien technique & logistique : Manuel Goepfert

Contact : metmap@orbifly.com




SOURCES & CREDITS :

   NOAA